sensor_id;sensor_type;location;lat;lon;timestamp;P1;durP1;ratioP1;P2;durP2;ratioP2
47305;SDS011;33043;48.390;11.734;2022-07-17T04:01:28;8.13;;;5.15;;
47305;SDS011;33043;48.390;11.734;2022-07-17T04:03:54;10.45;;;6.12;;
47305;SDS011;33043;48.390;11.734;2022-07-17T04:06:20;10.75;;;6.25;;
47305;SDS011;33043;48.390;11.734;2022-07-17T04:08:46;10.15;;;5.72;;
47305;SDS011;33043;48.390;11.734;2022-07-17T04:11:13;7.72;;;5.10;;
47305;SDS011;33043;48.390;11.734;2022-07-17T04:13:39;6.57;;;5.50;;
47305;SDS011;33043;48.390;11.734;2022-07-17T04:16:05;7.25;;;5.65;;
47305;SDS011;33043;48.390;11.734;2022-07-17T04:18:32;7.03;;;5.12;;
47305;SDS011;33043;48.390;11.734;2022-07-17T04:21:03;5.90;;;4.95;;
47305;SDS011;33043;48.390;11.734;2022-07-17T04:23:29;7.15;;;4.97;;
47305;SDS011;33043;48.390;11.734;2022-07-17T04:25:56;5.75;;;5.05;;
47305;SDS011;33043;48.390;11.734;2022-07-17T04:28:22;6.55;;;5.18;;
47305;SDS011;33043;48.390;11.734;2022-07-17T04:30:49;9.48;;;5.25;;
47305;SDS011;33043;48.390;11.734;2022-07-17T04:33:15;9.75;;;5.85;;
47305;SDS011;33043;48.390;11.734;2022-07-17T04:35:42;6.28;;;5.10;;
47305;SDS011;33043;48.390;11.734;2022-07-17T04:38:08;9.02;;;5.47;;
47305;SDS011;33043;48.390;11.734;2022-07-17T04:40:35;12.37;;;6.97;;
47305;SDS011;33043;48.390;11.734;2022-07-17T04:43:02;13.48;;;7.53;;
47305;SDS011;33043;48.390;11.734;2022-07-17T04:45:28;12.10;;;6.85;;
47305;SDS011;33043;48.390;11.734;2022-07-17T04:47:54;12.40;;;7.62;;
47305;SDS011;33043;48.390;11.734;2022-07-17T04:50:21;9.15;;;6.62;;
47305;SDS011;33043;48.390;11.734;2022-07-17T04:52:48;10.25;;;6.60;;
47305;SDS011;33043;48.390;11.734;2022-07-17T04:55:14;7.97;;;5.87;;
47305;SDS011;33043;48.390;11.734;2022-07-17T04:57:41;7.53;;;6.10;;
47305;SDS011;33043;48.390;11.734;2022-07-17T05:00:08;11.25;;;6.15;;
47305;SDS011;33043;48.390;11.734;2022-07-17T05:02:35;10.77;;;6.70;;
47305;SDS011;33043;48.390;11.734;2022-07-17T05:05:01;9.45;;;6.22;;
47305;SDS011;33043;48.390;11.734;2022-07-17T05:07:27;8.88;;;5.30;;
47305;SDS011;33043;48.390;11.734;2022-07-17T05:09:54;14.38;;;6.05;;
47305;SDS011;33043;48.390;11.734;2022-07-17T05:12:20;7.12;;;5.20;;
47305;SDS011;33043;48.390;11.734;2022-07-17T05:14:46;10.93;;;5.50;;
47305;SDS011;33043;48.390;11.734;2022-07-17T05:17:13;9.55;;;5.65;;
47305;SDS011;33043;48.390;11.734;2022-07-17T05:19:39;6.07;;;4.68;;
47305;SDS011;33043;48.390;11.734;2022-07-17T05:22:05;7.82;;;5.25;;
47305;SDS011;33043;48.390;11.734;2022-07-17T05:24:32;9.13;;;4.78;;
47305;SDS011;33043;48.390;11.734;2022-07-17T05:26:59;7.85;;;4.80;;
47305;SDS011;33043;48.390;11.734;2022-07-17T05:29:25;8.57;;;4.18;;
47305;SDS011;33043;48.390;11.734;2022-07-17T05:31:51;6.93;;;4.00;;
47305;SDS011;33043;48.390;11.734;2022-07-17T05:34:18;5.85;;;3.50;;
47305;SDS011;33043;48.390;11.734;2022-07-17T05:36:44;4.53;;;3.60;;
47305;SDS011;33043;48.390;11.734;2022-07-17T05:39:11;5.32;;;3.35;;
47305;SDS011;33043;48.390;11.734;2022-07-17T05:41:38;7.15;;;3.72;;
47305;SDS011;33043;48.390;11.734;2022-07-17T05:44:04;5.68;;;3.17;;
47305;SDS011;33043;48.390;11.734;2022-07-17T05:46:30;4.00;;;3.12;;
47305;SDS011;33043;48.390;11.734;2022-07-17T05:48:57;8.85;;;3.20;;
47305;SDS011;33043;48.390;11.734;2022-07-17T05:51:23;7.25;;;3.83;;
47305;SDS011;33043;48.390;11.734;2022-07-17T05:53:49;6.22;;;3.55;;
47305;SDS011;33043;48.390;11.734;2022-07-17T05:56:15;3.80;;;2.70;;
47305;SDS011;33043;48.390;11.734;2022-07-17T05:58:42;5.53;;;3.20;;
47305;SDS011;33043;48.390;11.734;2022-07-17T06:01:08;3.28;;;2.97;;
47305;SDS011;33043;48.390;11.734;2022-07-17T06:03:34;6.53;;;2.70;;
47305;SDS011;33043;48.390;11.734;2022-07-17T06:06:00;5.25;;;3.05;;
47305;SDS011;33043;48.390;11.734;2022-07-17T06:08:27;6.37;;;3.20;;
47305;SDS011;33043;48.390;11.734;2022-07-17T06:10:53;3.55;;;2.90;;
47305;SDS011;33043;48.390;11.734;2022-07-17T06:13:19;7.45;;;3.35;;
47305;SDS011;33043;48.390;11.734;2022-07-17T06:15:45;5.12;;;2.83;;
47305;SDS011;33043;48.390;11.734;2022-07-17T06:18:12;3.70;;;2.95;;
47305;SDS011;33043;48.390;11.734;2022-07-17T06:20:38;11.90;;;3.58;;
47305;SDS011;33043;48.390;11.734;2022-07-17T06:23:04;4.40;;;3.20;;
47305;SDS011;33043;48.390;11.734;2022-07-17T06:25:30;6.47;;;3.15;;
47305;SDS011;33043;48.390;11.734;2022-07-17T06:27:57;4.82;;;3.08;;
47305;SDS011;33043;48.390;11.734;2022-07-17T06:30:23;5.50;;;3.17;;
47305;SDS011;33043;48.390;11.734;2022-07-17T06:32:49;5.82;;;3.28;;
47305;SDS011;33043;48.390;11.734;2022-07-17T06:35:16;4.62;;;3.67;;
47305;SDS011;33043;48.390;11.734;2022-07-17T06:37:42;5.78;;;2.95;;
47305;SDS011;33043;48.390;11.734;2022-07-17T06:40:08;4.28;;;3.10;;
47305;SDS011;33043;48.390;11.734;2022-07-17T06:42:34;6.70;;;3.47;;
47305;SDS011;33043;48.390;11.734;2022-07-17T06:45:01;8.70;;;3.30;;
47305;SDS011;33043;48.390;11.734;2022-07-17T06:47:27;9.38;;;2.78;;
47305;SDS011;33043;48.390;11.734;2022-07-17T06:49:53;6.47;;;2.67;;
47305;SDS011;33043;48.390;11.734;2022-07-17T06:52:20;5.90;;;2.10;;
47305;SDS011;33043;48.390;11.734;2022-07-17T06:54:46;4.70;;;2.33;;
47305;SDS011;33043;48.390;11.734;2022-07-17T06:57:12;5.10;;;2.33;;
47305;SDS011;33043;48.390;11.734;2022-07-17T06:59:38;5.15;;;2.20;;
47305;SDS011;33043;48.390;11.734;2022-07-17T07:02:05;5.30;;;2.50;;
47305;SDS011;33043;48.390;11.734;2022-07-17T07:04:32;4.53;;;2.25;;
47305;SDS011;33043;48.390;11.734;2022-07-17T07:06:58;4.72;;;2.22;;
47305;SDS011;33043;48.390;11.734;2022-07-17T07:09:24;6.25;;;2.20;;
47305;SDS011;33043;48.390;11.734;2022-07-17T07:11:51;9.35;;;2.33;;
47305;SDS011;33043;48.390;11.734;2022-07-17T07:14:18;3.58;;;1.90;;
47305;SDS011;33043;48.390;11.734;2022-07-17T07:16:44;2.08;;;1.95;;
47305;SDS011;33043;48.390;11.734;2022-07-17T07:19:10;2.37;;;1.87;;
47305;SDS011;33043;48.390;11.734;2022-07-17T07:21:36;3.72;;;2.20;;
47305;SDS011;33043;48.390;11.734;2022-07-17T07:24:03;3.15;;;2.28;;
47305;SDS011;33043;48.390;11.734;2022-07-17T07:26:29;6.32;;;1.90;;
47305;SDS011;33043;48.390;11.734;2022-07-17T07:28:56;2.70;;;1.60;;
47305;SDS011;33043;48.390;11.734;2022-07-17T07:31:22;2.65;;;1.70;;
47305;SDS011;33043;48.390;11.734;2022-07-17T07:33:48;2.42;;;1.70;;
47305;SDS011;33043;48.390;11.734;2022-07-17T07:36:14;2.12;;;1.83;;
47305;SDS011;33043;48.390;11.734;2022-07-17T07:38:41;2.37;;;1.80;;
47305;SDS011;33043;48.390;11.734;2022-07-17T07:41:07;5.03;;;1.90;;
47305;SDS011;33043;48.390;11.734;2022-07-17T07:43:34;5.97;;;2.00;;
47305;SDS011;33043;48.390;11.734;2022-07-17T07:46:00;2.75;;;1.80;;
47305;SDS011;33043;48.390;11.734;2022-07-17T07:48:26;3.35;;;1.83;;
47305;SDS011;33043;48.390;11.734;2022-07-17T07:50:53;4.72;;;1.75;;
47305;SDS011;33043;48.390;11.734;2022-07-17T07:53:19;3.58;;;1.90;;
47305;SDS011;33043;48.390;11.734;2022-07-17T07:55:46;2.72;;;1.77;;
47305;SDS011;33043;48.390;11.734;2022-07-17T07:58:12;2.95;;;1.65;;
47305;SDS011;33043;48.390;11.734;2022-07-17T08:00:39;1.77;;;1.60;;
47305;SDS011;33043;48.390;11.734;2022-07-17T08:03:06;2.65;;;1.77;;
47305;SDS011;33043;48.390;11.734;2022-07-17T08:05:32;2.85;;;2.00;;
47305;SDS011;33043;48.390;11.734;2022-07-17T08:07:59;4.10;;;1.67;;
47305;SDS011;33043;48.390;11.734;2022-07-17T08:10:25;4.97;;;1.80;;
47305;SDS011;33043;48.390;11.734;2022-07-17T08:12:52;2.40;;;1.77;;
47305;SDS011;33043;48.390;11.734;2022-07-17T08:15:19;3.10;;;2.00;;
47305;SDS011;33043;48.390;11.734;2022-07-17T08:17:46;6.93;;;1.98;;
47305;SDS011;33043;48.390;11.734;2022-07-17T08:20:12;4.78;;;1.67;;
47305;SDS011;33043;48.390;11.734;2022-07-17T08:22:39;1.87;;;1.48;;
47305;SDS011;33043;48.390;11.734;2022-07-17T08:25:05;3.47;;;1.83;;
47305;SDS011;33043;48.390;11.734;2022-07-17T08:27:35;2.22;;;1.77;;
47305;SDS011;33043;48.390;11.734;2022-07-17T08:30:05;3.92;;;1.50;;
47305;SDS011;33043;48.390;11.734;2022-07-17T08:32:32;3.47;;;1.50;;
47305;SDS011;33043;48.390;11.734;2022-07-17T08:34:58;1.42;;;1.20;;
47305;SDS011;33043;48.390;11.734;2022-07-17T08:37:25;2.03;;;1.48;;
47305;SDS011;33043;48.390;11.734;2022-07-17T08:39:51;4.32;;;1.42;;
47305;SDS011;33043;48.390;11.734;2022-07-17T08:42:18;3.20;;;1.65;;
47305;SDS011;33043;48.390;11.734;2022-07-17T08:44:44;1.70;;;1.37;;
47305;SDS011;33043;48.390;11.734;2022-07-17T08:47:11;2.22;;;1.83;;
47305;SDS011;33043;48.390;11.734;2022-07-17T08:49:41;3.28;;;1.45;;
47305;SDS011;33043;48.390;11.734;2022-07-17T08:52:12;2.03;;;1.73;;
47305;SDS011;33043;48.390;11.734;2022-07-17T08:54:39;2.75;;;1.83;;
47305;SDS011;33043;48.390;11.734;2022-07-17T08:57:05;1.80;;;1.30;;
47305;SDS011;33043;48.390;11.734;2022-07-17T08:59:39;1.87;;;1.75;;
47305;SDS011;33043;48.390;11.734;2022-07-17T09:02:06;2.17;;;1.87;;
47305;SDS011;33043;48.390;11.734;2022-07-17T09:04:33;4.68;;;1.80;;
47305;SDS011;33043;48.390;11.734;2022-07-17T09:07:00;4.87;;;1.70;;
47305;SDS011;33043;48.390;11.734;2022-07-17T09:09:27;3.97;;;1.80;;
47305;SDS011;33043;48.390;11.734;2022-07-17T09:11:54;7.60;;;1.83;;
47305;SDS011;33043;48.390;11.734;2022-07-17T09:14:21;3.08;;;1.80;;
47305;SDS011;33043;48.390;11.734;2022-07-17T09:16:48;8.20;;;1.58;;
47305;SDS011;33043;48.390;11.734;2022-07-17T09:19:28;3.70;;;1.50;;
47305;SDS011;33043;48.390;11.734;2022-07-17T09:27:15;5.65;;;1.90;;
47305;SDS011;33043;48.390;11.734;2022-07-17T09:29:50;3.47;;;2.03;;
47305;SDS011;33043;48.390;11.734;2022-07-17T09:32:17;1.85;;;1.62;;
47305;SDS011;33043;48.390;11.734;2022-07-17T09:34:47;3.20;;;1.40;;
47305;SDS011;33043;48.390;11.734;2022-07-17T09:37:14;3.03;;;1.50;;
47305;SDS011;33043;48.390;11.734;2022-07-17T09:39:43;5.37;;;1.92;;
47305;SDS011;33043;48.390;11.734;2022-07-17T09:42:20;4.03;;;1.45;;
47305;SDS011;33043;48.390;11.734;2022-07-17T09:45:09;4.35;;;1.40;;
47305;SDS011;33043;48.390;11.734;2022-07-17T09:47:38;2.17;;;1.50;;
47305;SDS011;33043;48.390;11.734;2022-07-17T09:50:06;1.95;;;1.45;;
47305;SDS011;33043;48.390;11.734;2022-07-17T09:52:34;2.72;;;1.60;;
47305;SDS011;33043;48.390;11.734;2022-07-17T09:55:01;2.78;;;1.60;;
47305;SDS011;33043;48.390;11.734;2022-07-17T09:57:28;2.22;;;1.85;;
47305;SDS011;33043;48.390;11.734;2022-07-17T09:59:55;5.20;;;1.98;;
47305;SDS011;33043;48.390;11.734;2022-07-17T10:02:22;4.95;;;1.90;;
47305;SDS011;33043;48.390;11.734;2022-07-17T10:04:54;2.50;;;1.67;;
47305;SDS011;33043;48.390;11.734;2022-07-17T10:07:20;3.12;;;1.70;;
47305;SDS011;33043;48.390;11.734;2022-07-17T10:09:46;3.80;;;1.65;;
47305;SDS011;33043;48.390;11.734;2022-07-17T10:12:13;6.62;;;2.10;;
47305;SDS011;33043;48.390;11.734;2022-07-17T10:14:40;3.28;;;1.60;;
47305;SDS011;33043;48.390;11.734;2022-07-17T10:17:12;3.95;;;1.80;;
47305;SDS011;33043;48.390;11.734;2022-07-17T10:19:48;7.05;;;1.70;;
47305;SDS011;33043;48.390;11.734;2022-07-17T10:22:15;3.78;;;1.98;;
47305;SDS011;33043;48.390;11.734;2022-07-17T10:24:46;3.37;;;2.08;;
47305;SDS011;33043;48.390;11.734;2022-07-17T10:27:28;3.80;;;1.60;;
47305;SDS011;33043;48.390;11.734;2022-07-17T10:30:00;2.95;;;1.40;;
47305;SDS011;33043;48.390;11.734;2022-07-17T10:32:27;2.17;;;1.90;;
47305;SDS011;33043;48.390;11.734;2022-07-17T10:34:57;3.30;;;1.60;;
47305;SDS011;33043;48.390;11.734;2022-07-17T10:39:54;2.80;;;1.60;;
47305;SDS011;33043;48.390;11.734;2022-07-17T10:42:40;3.15;;;1.65;;
47305;SDS011;33043;48.390;11.734;2022-07-17T10:45:08;5.85;;;1.45;;
47305;SDS011;33043;48.390;11.734;2022-07-17T10:47:44;3.83;;;1.83;;
47305;SDS011;33043;48.390;11.734;2022-07-17T10:50:11;3.72;;;1.85;;
47305;SDS011;33043;48.390;11.734;2022-07-17T10:52:38;7.12;;;1.92;;
47305;SDS011;33043;48.390;11.734;2022-07-17T10:55:06;3.87;;;1.75;;
47305;SDS011;33043;48.390;11.734;2022-07-17T10:57:42;3.25;;;1.70;;
47305;SDS011;33043;48.390;11.734;2022-07-17T11:00:10;3.97;;;1.60;;
47305;SDS011;33043;48.390;11.734;2022-07-17T11:02:37;2.78;;;1.60;;
47305;SDS011;33043;48.390;11.734;2022-07-17T11:05:07;3.60;;;1.92;;
47305;SDS011;33043;48.390;11.734;2022-07-17T11:07:33;7.43;;;1.73;;
47305;SDS011;33043;48.390;11.734;2022-07-17T11:09:59;3.80;;;1.27;;
47305;SDS011;33043;48.390;11.734;2022-07-17T11:12:35;4.28;;;2.12;;
47305;SDS011;33043;48.390;11.734;2022-07-17T11:15:02;4.60;;;1.75;;
47305;SDS011;33043;48.390;11.734;2022-07-17T11:17:28;2.53;;;1.50;;
47305;SDS011;33043;48.390;11.734;2022-07-17T11:19:54;4.37;;;1.75;;
47305;SDS011;33043;48.390;11.734;2022-07-17T11:22:23;1.70;;;1.40;;
47305;SDS011;33043;48.390;11.734;2022-07-17T11:24:50;5.60;;;2.00;;
47305;SDS011;33043;48.390;11.734;2022-07-17T11:27:34;3.92;;;1.77;;
47305;SDS011;33043;48.390;11.734;2022-07-17T11:30:02;7.22;;;1.73;;
47305;SDS011;33043;48.390;11.734;2022-07-17T11:32:33;2.03;;;1.73;;
47305;SDS011;33043;48.390;11.734;2022-07-17T11:34:59;3.83;;;1.80;;
47305;SDS011;33043;48.390;11.734;2022-07-17T11:37:28;2.33;;;1.77;;
47305;SDS011;33043;48.390;11.734;2022-07-17T11:39:54;6.45;;;1.70;;
47305;SDS011;33043;48.390;11.734;2022-07-17T11:42:21;1.60;;;1.45;;
47305;SDS011;33043;48.390;11.734;2022-07-17T11:44:53;1.90;;;1.60;;
47305;SDS011;33043;48.390;11.734;2022-07-17T11:47:29;3.95;;;1.37;;
47305;SDS011;33043;48.390;11.734;2022-07-17T11:50:08;2.70;;;1.65;;
47305;SDS011;33043;48.390;11.734;2022-07-17T11:52:42;1.48;;;1.37;;
47305;SDS011;33043;48.390;11.734;2022-07-17T11:55:09;1.65;;;1.52;;
47305;SDS011;33043;48.390;11.734;2022-07-17T11:57:46;2.90;;;1.42;;
47305;SDS011;33043;48.390;11.734;2022-07-17T12:00:14;2.83;;;1.58;;
47305;SDS011;33043;48.390;11.734;2022-07-17T12:02:40;2.80;;;1.40;;
47305;SDS011;33043;48.390;11.734;2022-07-17T12:05:07;2.53;;;1.62;;
47305;SDS011;33043;48.390;11.734;2022-07-17T12:07:43;5.62;;;2.15;;
47305;SDS011;33043;48.390;11.734;2022-07-17T12:10:14;2.22;;;1.35;;
47305;SDS011;33043;48.390;11.734;2022-07-17T12:12:50;3.17;;;1.50;;
47305;SDS011;33043;48.390;11.734;2022-07-17T12:15:17;2.20;;;1.40;;
47305;SDS011;33043;48.390;11.734;2022-07-17T12:17:44;2.97;;;1.67;;
47305;SDS011;33043;48.390;11.734;2022-07-17T12:20:10;1.67;;;1.52;;
47305;SDS011;33043;48.390;11.734;2022-07-17T12:22:43;1.77;;;1.25;;
47305;SDS011;33043;48.390;11.734;2022-07-17T12:25:21;2.17;;;1.25;;
47305;SDS011;33043;48.390;11.734;2022-07-17T12:27:47;1.20;;;1.05;;
47305;SDS011;33043;48.390;11.734;2022-07-17T12:30:13;5.60;;;1.62;;
47305;SDS011;33043;48.390;11.734;2022-07-17T12:32:40;2.53;;;1.58;;
47305;SDS011;33043;48.390;11.734;2022-07-17T12:35:06;2.30;;;1.45;;
47305;SDS011;33043;48.390;11.734;2022-07-17T12:37:33;1.67;;;1.25;;
47305;SDS011;33043;48.390;11.734;2022-07-17T12:39:59;3.17;;;1.35;;
47305;SDS011;33043;48.390;11.734;2022-07-17T12:42:25;1.70;;;1.52;;
47305;SDS011;33043;48.390;11.734;2022-07-17T12:44:51;1.90;;;1.33;;
47305;SDS011;33043;48.390;11.734;2022-07-17T12:47:18;2.70;;;1.20;;
47305;SDS011;33043;48.390;11.734;2022-07-17T12:49:44;1.65;;;1.10;;
47305;SDS011;33043;48.390;11.734;2022-07-17T12:52:10;3.70;;;2.60;;
47305;SDS011;33043;48.390;11.734;2022-07-17T12:54:39;2.33;;;1.15;;
47305;SDS011;33043;48.390;11.734;2022-07-17T12:57:05;5.25;;;1.80;;
47305;SDS011;33043;48.390;11.734;2022-07-17T12:59:32;2.08;;;1.73;;
47305;SDS011;33043;48.390;11.734;2022-07-17T13:01:59;1.50;;;1.40;;
47305;SDS011;33043;48.390;11.734;2022-07-17T13:04:26;2.97;;;1.65;;
47305;SDS011;33043;48.390;11.734;2022-07-17T13:06:52;3.47;;;1.52;;
47305;SDS011;33043;48.390;11.734;2022-07-17T13:09:18;2.67;;;1.50;;
47305;SDS011;33043;48.390;11.734;2022-07-17T13:11:45;2.72;;;1.20;;
47305;SDS011;33043;48.390;11.734;2022-07-17T13:14:11;3.33;;;1.75;;
47305;SDS011;33043;48.390;11.734;2022-07-17T13:16:38;3.28;;;1.30;;
47305;SDS011;33043;48.390;11.734;2022-07-17T13:19:04;2.20;;;1.48;;
47305;SDS011;33043;48.390;11.734;2022-07-17T13:21:30;2.05;;;1.65;;
47305;SDS011;33043;48.390;11.734;2022-07-17T13:23:57;3.47;;;1.30;;
47305;SDS011;33043;48.390;11.734;2022-07-17T13:26:23;2.28;;;1.42;;
47305;SDS011;33043;48.390;11.734;2022-07-17T13:28:49;2.50;;;1.42;;
47305;SDS011;33043;48.390;11.734;2022-07-17T13:31:16;1.87;;;1.40;;
47305;SDS011;33043;48.390;11.734;2022-07-17T13:33:42;2.22;;;1.35;;
47305;SDS011;33043;48.390;11.734;2022-07-17T13:36:09;4.25;;;1.40;;
47305;SDS011;33043;48.390;11.734;2022-07-17T13:38:35;2.08;;;1.75;;
47305;SDS011;33043;48.390;11.734;2022-07-17T13:41:01;4.22;;;1.73;;
47305;SDS011;33043;48.390;11.734;2022-07-17T13:43:27;2.58;;;1.65;;
47305;SDS011;33043;48.390;11.734;2022-07-17T13:45:54;4.85;;;1.45;;
47305;SDS011;33043;48.390;11.734;2022-07-17T13:48:20;3.00;;;1.40;;
47305;SDS011;33043;48.390;11.734;2022-07-17T13:50:47;2.97;;;1.50;;
47305;SDS011;33043;48.390;11.734;2022-07-17T13:53:13;1.80;;;1.30;;
47305;SDS011;33043;48.390;11.734;2022-07-17T13:55:39;2.45;;;1.20;;
47305;SDS011;33043;48.390;11.734;2022-07-17T13:58:05;2.37;;;1.37;;
47305;SDS011;33043;48.390;11.734;2022-07-17T14:00:33;1.98;;;1.52;;
47305;SDS011;33043;48.390;11.734;2022-07-17T14:02:59;3.70;;;1.33;;
47305;SDS011;33043;48.390;11.734;2022-07-17T14:05:25;2.83;;;1.45;;
47305;SDS011;33043;48.390;11.734;2022-07-17T14:07:52;1.85;;;1.50;;
47305;SDS011;33043;48.390;11.734;2022-07-17T14:10:18;2.28;;;1.92;;
47305;SDS011;33043;48.390;11.734;2022-07-17T14:12:44;1.90;;;1.30;;
47305;SDS011;33043;48.390;11.734;2022-07-17T14:15:11;2.22;;;1.23;;
47305;SDS011;33043;48.390;11.734;2022-07-17T14:17:37;4.68;;;2.55;;
47305;SDS011;33043;48.390;11.734;2022-07-17T14:20:04;1.98;;;1.40;;
47305;SDS011;33043;48.390;11.734;2022-07-17T14:22:30;9.80;;;1.40;;
47305;SDS011;33043;48.390;11.734;2022-07-17T14:24:56;1.98;;;1.55;;
47305;SDS011;33043;48.390;11.734;2022-07-17T14:27:23;2.12;;;1.58;;
47305;SDS011;33043;48.390;11.734;2022-07-17T14:29:49;4.03;;;1.50;;
47305;SDS011;33043;48.390;11.734;2022-07-17T14:32:15;2.22;;;1.20;;
47305;SDS011;33043;48.390;11.734;2022-07-17T14:34:42;3.03;;;1.17;;
47305;SDS011;33043;48.390;11.734;2022-07-17T14:37:08;1.58;;;1.48;;
47305;SDS011;33043;48.390;11.734;2022-07-17T14:39:34;3.03;;;1.40;;
47305;SDS011;33043;48.390;11.734;2022-07-17T14:42:01;3.17;;;1.40;;
47305;SDS011;33043;48.390;11.734;2022-07-17T14:44:27;4.03;;;1.70;;
47305;SDS011;33043;48.390;11.734;2022-07-17T14:46:56;1.48;;;1.37;;
47305;SDS011;33043;48.390;11.734;2022-07-17T14:49:24;2.17;;;1.67;;
47305;SDS011;33043;48.390;11.734;2022-07-17T14:51:50;3.92;;;1.52;;
47305;SDS011;33043;48.390;11.734;2022-07-17T14:54:16;2.05;;;1.50;;
47305;SDS011;33043;48.390;11.734;2022-07-17T14:56:43;4.75;;;1.50;;
47305;SDS011;33043;48.390;11.734;2022-07-17T14:59:09;3.33;;;1.62;;
47305;SDS011;33043;48.390;11.734;2022-07-17T15:01:35;2.20;;;1.30;;
47305;SDS011;33043;48.390;11.734;2022-07-17T15:04:01;3.62;;;2.10;;
47305;SDS011;33043;48.390;11.734;2022-07-17T15:06:28;5.93;;;1.52;;
47305;SDS011;33043;48.390;11.734;2022-07-17T15:08:54;2.75;;;1.55;;
47305;SDS011;33043;48.390;11.734;2022-07-17T15:11:21;2.47;;;1.20;;
47305;SDS011;33043;48.390;11.734;2022-07-17T15:13:47;1.85;;;1.50;;
47305;SDS011;33043;48.390;11.734;2022-07-17T15:16:13;2.33;;;1.25;;
47305;SDS011;33043;48.390;11.734;2022-07-17T15:18:39;3.10;;;1.50;;
47305;SDS011;33043;48.390;11.734;2022-07-17T15:21:07;1.92;;;1.55;;
47305;SDS011;33043;48.390;11.734;2022-07-17T15:23:33;4.40;;;1.40;;
47305;SDS011;33043;48.390;11.734;2022-07-17T15:26:01;3.95;;;1.40;;
47305;SDS011;33043;48.390;11.734;2022-07-17T15:28:27;5.18;;;1.70;;
47305;SDS011;33043;48.390;11.734;2022-07-17T15:30:53;3.37;;;1.50;;
47305;SDS011;33043;48.390;11.734;2022-07-17T15:33:20;2.08;;;1.30;;
47305;SDS011;33043;48.390;11.734;2022-07-17T15:35:46;3.28;;;1.67;;
47305;SDS011;33043;48.390;11.734;2022-07-17T15:38:12;1.65;;;1.23;;
47305;SDS011;33043;48.390;11.734;2022-07-17T15:40:38;1.83;;;1.52;;
47305;SDS011;33043;48.390;11.734;2022-07-17T15:43:05;3.65;;;1.37;;
47305;SDS011;33043;48.390;11.734;2022-07-17T15:45:31;3.03;;;1.40;;
47305;SDS011;33043;48.390;11.734;2022-07-17T15:47:57;1.42;;;1.33;;
47305;SDS011;33043;48.390;11.734;2022-07-17T15:50:24;5.55;;;1.52;;
47305;SDS011;33043;48.390;11.734;2022-07-17T15:52:50;2.12;;;1.62;;
47305;SDS011;33043;48.390;11.734;2022-07-17T15:55:16;6.32;;;3.78;;
47305;SDS011;33043;48.390;11.734;2022-07-17T15:57:44;8.63;;;6.45;;
47305;SDS011;33043;48.390;11.734;2022-07-17T16:00:11;2.95;;;1.90;;
47305;SDS011;33043;48.390;11.734;2022-07-17T16:02:39;5.68;;;3.33;;
47305;SDS011;33043;48.390;11.734;2022-07-17T16:05:14;2.92;;;2.60;;
47305;SDS011;33043;48.390;11.734;2022-07-17T16:07:41;4.47;;;1.80;;
47305;SDS011;33043;48.390;11.734;2022-07-17T16:10:07;3.45;;;2.05;;
47305;SDS011;33043;48.390;11.734;2022-07-17T16:12:33;2.30;;;1.52;;
47305;SDS011;33043;48.390;11.734;2022-07-17T16:15:00;1.83;;;1.30;;
47305;SDS011;33043;48.390;11.734;2022-07-17T16:17:26;3.37;;;1.55;;
47305;SDS011;33043;48.390;11.734;2022-07-17T16:19:54;4.93;;;1.73;;
47305;SDS011;33043;48.390;11.734;2022-07-17T16:22:20;19.73;;;8.90;;
47305;SDS011;33043;48.390;11.734;2022-07-17T16:24:47;6.53;;;3.58;;
47305;SDS011;33043;48.390;11.734;2022-07-17T16:27:13;12.02;;;5.95;;
47305;SDS011;33043;48.390;11.734;2022-07-17T16:29:40;5.05;;;2.83;;
47305;SDS011;33043;48.390;11.734;2022-07-17T16:32:06;14.30;;;8.98;;
47305;SDS011;33043;48.390;11.734;2022-07-17T16:34:33;7.18;;;5.18;;
47305;SDS011;33043;48.390;11.734;2022-07-17T16:36:59;5.20;;;2.75;;
47305;SDS011;33043;48.390;11.734;2022-07-17T16:39:25;5.45;;;3.62;;
47305;SDS011;33043;48.390;11.734;2022-07-17T16:41:53;3.05;;;2.20;;
47305;SDS011;33043;48.390;11.734;2022-07-17T16:44:19;4.18;;;2.65;;
47305;SDS011;33043;48.390;11.734;2022-07-17T16:46:45;3.58;;;1.42;;
47305;SDS011;33043;48.390;11.734;2022-07-17T16:49:11;3.58;;;1.87;;
47305;SDS011;33043;48.390;11.734;2022-07-17T16:51:38;3.10;;;1.73;;
47305;SDS011;33043;48.390;11.734;2022-07-17T16:54:04;6.47;;;3.62;;
47305;SDS011;33043;48.390;11.734;2022-07-17T16:56:30;3.72;;;1.58;;
47305;SDS011;33043;48.390;11.734;2022-07-17T16:58:57;3.60;;;2.08;;
47305;SDS011;33043;48.390;11.734;2022-07-17T17:01:23;9.63;;;3.65;;
47305;SDS011;33043;48.390;11.734;2022-07-17T17:03:49;2.35;;;1.98;;
47305;SDS011;33043;48.390;11.734;2022-07-17T17:06:16;11.95;;;4.95;;
47305;SDS011;33043;48.390;11.734;2022-07-17T17:08:42;3.20;;;1.85;;
47305;SDS011;33043;48.390;11.734;2022-07-17T17:11:09;3.22;;;1.52;;
47305;SDS011;33043;48.390;11.734;2022-07-17T17:13:35;5.65;;;2.03;;
47305;SDS011;33043;48.390;11.734;2022-07-17T17:16:01;2.92;;;1.67;;
47305;SDS011;33043;48.390;11.734;2022-07-17T17:18:27;2.37;;;1.37;;
47305;SDS011;33043;48.390;11.734;2022-07-17T17:20:54;6.12;;;1.30;;
47305;SDS011;33043;48.390;11.734;2022-07-17T17:23:20;2.62;;;1.50;;
47305;SDS011;33043;48.390;11.734;2022-07-17T17:25:46;3.70;;;1.37;;
47305;SDS011;33043;48.390;11.734;2022-07-17T17:28:13;2.87;;;1.20;;
47305;SDS011;33043;48.390;11.734;2022-07-17T17:30:39;4.22;;;1.35;;
47305;SDS011;33043;48.390;11.734;2022-07-17T17:33:05;1.42;;;1.12;;
47305;SDS011;33043;48.390;11.734;2022-07-17T17:35:32;4.00;;;1.27;;
47305;SDS011;33043;48.390;11.734;2022-07-17T17:37:58;4.78;;;1.48;;
47305;SDS011;33043;48.390;11.734;2022-07-17T17:40:24;1.98;;;1.27;;
47305;SDS011;33043;48.390;11.734;2022-07-17T17:42:51;1.70;;;1.30;;
47305;SDS011;33043;48.390;11.734;2022-07-17T17:45:17;1.75;;;1.10;;
47305;SDS011;33043;48.390;11.734;2022-07-17T17:47:43;1.90;;;1.20;;
47305;SDS011;33043;48.390;11.734;2022-07-17T17:50:10;4.90;;;1.10;;
47305;SDS011;33043;48.390;11.734;2022-07-17T17:52:41;3.12;;;1.30;;
47305;SDS011;33043;48.390;11.734;2022-07-17T17:55:09;1.60;;;1.50;;
47305;SDS011;33043;48.390;11.734;2022-07-17T17:57:36;2.62;;;1.67;;
47305;SDS011;33043;48.390;11.734;2022-07-17T18:00:03;1.52;;;1.20;;
47305;SDS011;33043;48.390;11.734;2022-07-17T18:02:31;1.37;;;1.25;;
47305;SDS011;33043;48.390;11.734;2022-07-17T18:04:57;2.08;;;1.37;;
47305;SDS011;33043;48.390;11.734;2022-07-17T18:07:23;2.03;;;1.17;;
47305;SDS011;33043;48.390;11.734;2022-07-17T18:09:49;3.28;;;1.60;;
47305;SDS011;33043;48.390;11.734;2022-07-17T18:12:16;6.25;;;1.40;;
47305;SDS011;33043;48.390;11.734;2022-07-17T18:14:42;2.60;;;1.50;;
47305;SDS011;33043;48.390;11.734;2022-07-17T18:17:09;1.77;;;1.20;;
47305;SDS011;33043;48.390;11.734;2022-07-17T18:19:36;3.30;;;1.40;;
47305;SDS011;33043;48.390;11.734;2022-07-17T18:22:03;3.08;;;1.42;;
47305;SDS011;33043;48.390;11.734;2022-07-17T18:24:29;3.25;;;1.30;;
47305;SDS011;33043;48.390;11.734;2022-07-17T18:26:55;2.55;;;1.40;;
47305;SDS011;33043;48.390;11.734;2022-07-17T18:29:22;4.93;;;1.40;;
47305;SDS011;33043;48.390;11.734;2022-07-17T18:31:49;3.47;;;1.87;;
47305;SDS011;33043;48.390;11.734;2022-07-17T18:34:17;5.28;;;1.80;;
47305;SDS011;33043;48.390;11.734;2022-07-17T18:36:43;1.42;;;1.12;;
47305;SDS011;33043;48.390;11.734;2022-07-17T18:39:09;2.00;;;1.33;;
47305;SDS011;33043;48.390;11.734;2022-07-17T18:41:38;2.67;;;1.58;;